sensor_id;sensor_type;location;lat;lon;timestamp;pressure;altitude;pressure_sealevel;temperature;humidity
69306;BME280;56427;51.580;4.656;2023-01-28T00:02:21;102937.28;;;2.94;100.00
69306;BME280;56427;51.580;4.656;2023-01-28T00:04:46;102941.59;;;2.91;100.00
69306;BME280;56427;51.580;4.656;2023-01-28T00:07:12;102942.56;;;2.85;100.00
69306;BME280;56427;51.580;4.656;2023-01-28T00:09:37;102936.66;;;2.82;100.00
69306;BME280;56427;51.580;4.656;2023-01-28T00:12:04;102934.72;;;2.96;100.00
69306;BME280;56427;51.580;4.656;2023-01-28T00:14:30;102934.72;;;2.96;100.00
69306;BME280;56427;51.580;4.656;2023-01-28T00:16:55;102939.03;;;2.91;100.00
69306;BME280;56427;51.580;4.656;2023-01-28T00:19:20;102941.56;;;2.94;100.00
69306;BME280;56427;51.580;4.656;2023-01-28T00:21:46;102934.09;;;2.82;100.00
69306;BME280;56427;51.580;4.656;2023-01-28T00:24:11;102937.53;;;2.79;100.00
69306;BME280;56427;51.580;4.656;2023-01-28T00:26:37;102939.63;;;2.57;100.00
69306;BME280;56427;51.580;4.656;2023-01-28T00:29:02;102943.69;;;2.69;100.00
69306;BME280;56427;51.580;4.656;2023-01-28T00:31:28;102947.88;;;2.73;100.00
69306;BME280;56427;51.580;4.656;2023-01-28T00:33:55;102952.75;;;2.90;100.00
69306;BME280;56427;51.580;4.656;2023-01-28T00:36:22;102953.13;;;2.68;100.00
69306;BME280;56427;51.580;4.656;2023-01-28T00:38:53;102952.28;;;2.65;100.00
69306;BME280;56427;51.580;4.656;2023-01-28T00:41:21;102953.19;;;2.64;100.00
69306;BME280;56427;51.580;4.656;2023-01-28T00:43:48;102954.94;;;2.60;100.00
69306;BME280;56427;51.580;4.656;2023-01-28T00:46:14;102956.59;;;2.64;100.00
69306;BME280;56427;51.580;4.656;2023-01-28T00:48:41;102954.38;;;2.94;100.00
69306;BME280;56427;51.580;4.656;2023-01-28T00:51:08;102960.31;;;2.98;100.00
69306;BME280;56427;51.580;4.656;2023-01-28T00:53:35;102954.25;;;3.02;100.00
69306;BME280;56427;51.580;4.656;2023-01-28T00:56:03;102956.28;;;2.83;100.00
69306;BME280;56427;51.580;4.656;2023-01-28T00:58:30;102959.03;;;2.72;100.00
69306;BME280;56427;51.580;4.656;2023-01-28T01:00:55;102955.63;;;2.71;100.00
69306;BME280;56427;51.580;4.656;2023-01-28T01:03:21;102945.94;;;2.87;100.00
69306;BME280;56427;51.580;4.656;2023-01-28T01:05:46;102949.16;;;3.00;100.00
69306;BME280;56427;51.580;4.656;2023-01-28T01:08:12;102952.69;;;2.94;100.00
69306;BME280;56427;51.580;4.656;2023-01-28T01:10:38;102949.38;;;2.88;100.00
69306;BME280;56427;51.580;4.656;2023-01-28T01:13:07;102945.38;;;2.71;100.00
69306;BME280;56427;51.580;4.656;2023-01-28T01:15:32;102948.66;;;2.80;100.00
69306;BME280;56427;51.580;4.656;2023-01-28T01:17:58;102943.78;;;2.63;100.00
69306;BME280;56427;51.580;4.656;2023-01-28T01:20:26;102946.34;;;2.63;100.00
69306;BME280;56427;51.580;4.656;2023-01-28T01:22:52;102940.28;;;2.70;100.00
69306;BME280;56427;51.580;4.656;2023-01-28T01:25:18;102937.41;;;2.87;100.00
69306;BME280;56427;51.580;4.656;2023-01-28T01:27:44;102936.50;;;2.89;100.00
69306;BME280;56427;51.580;4.656;2023-01-28T01:30:13;102936.78;;;2.74;100.00
69306;BME280;56427;51.580;4.656;2023-01-28T01:32:39;102938.47;;;2.75;100.00
69306;BME280;56427;51.580;4.656;2023-01-28T01:35:06;102940.28;;;2.68;100.00
69306;BME280;56427;51.580;4.656;2023-01-28T01:37:34;102934.91;;;2.84;100.00
69306;BME280;56427;51.580;4.656;2023-01-28T01:40:01;102939.38;;;2.71;100.00
69306;BME280;56427;51.580;4.656;2023-01-28T01:42:32;102937.72;;;2.70;100.00
69306;BME280;56427;51.580;4.656;2023-01-28T01:49:50;102944.53;;;2.69;100.00
69306;BME280;56427;51.580;4.656;2023-01-28T01:52:19;102935.63;;;2.37;100.00
69306;BME280;56427;51.580;4.656;2023-01-28T01:54:50;102934.63;;;2.48;100.00
69306;BME280;56427;51.580;4.656;2023-01-28T01:57:23;102942.91;;;2.65;100.00
69306;BME280;56427;51.580;4.656;2023-01-28T01:59:49;102941.16;;;2.67;100.00
69306;BME280;56427;51.580;4.656;2023-01-28T02:02:15;102938.66;;;2.63;100.00
69306;BME280;56427;51.580;4.656;2023-01-28T02:04:44;102944.66;;;2.63;100.00
69306;BME280;56427;51.580;4.656;2023-01-28T02:07:14;102951.53;;;2.60;100.00
69306;BME280;56427;51.580;4.656;2023-01-28T02:09:41;102958.56;;;2.47;100.00
69306;BME280;56427;51.580;4.656;2023-01-28T02:12:11;102950.88;;;2.47;100.00
69306;BME280;56427;51.580;4.656;2023-01-28T02:14:41;102953.41;;;2.48;100.00
69306;BME280;56427;51.580;4.656;2023-01-28T02:17:08;102959.13;;;2.66;100.00
69306;BME280;56427;51.580;4.656;2023-01-28T02:19:41;102962.66;;;2.58;100.00
69306;BME280;56427;51.580;4.656;2023-01-28T02:28:00;102948.28;;;2.48;100.00
69306;BME280;56427;51.580;4.656;2023-01-28T02:30:34;102951.53;;;2.60;100.00
69306;BME280;56427;51.580;4.656;2023-01-28T02:33:14;102949.22;;;2.43;100.00
69306;BME280;56427;51.580;4.656;2023-01-28T02:35:52;102940.84;;;2.31;100.00
69306;BME280;56427;51.580;4.656;2023-01-28T02:38:23;102939.03;;;2.38;100.00
69306;BME280;56427;51.580;4.656;2023-01-28T02:40:54;102940.94;;;2.25;100.00
69306;BME280;56427;51.580;4.656;2023-01-28T02:43:41;102939.78;;;2.45;100.00
69306;BME280;56427;51.580;4.656;2023-01-28T02:46:21;102940.88;;;2.28;100.00
69306;BME280;56427;51.580;4.656;2023-01-28T02:49:27;102942.69;;;2.21;100.00
69306;BME280;56427;51.580;4.656;2023-01-28T02:52:21;102952.84;;;2.28;100.00
69306;BME280;56427;51.580;4.656;2023-01-28T02:55:16;102957.06;;;2.32;100.00
69306;BME280;56427;51.580;4.656;2023-01-28T02:58:04;102950.44;;;2.15;100.00
69306;BME280;56427;51.580;4.656;2023-01-28T03:00:40;102953.25;;;1.98;100.00
69306;BME280;56427;51.580;4.656;2023-01-28T03:03:21;102946.81;;;2.32;100.00
69306;BME280;56427;51.580;4.656;2023-01-28T03:05:54;102962.25;;;2.29;100.00
69306;BME280;56427;51.580;4.656;2023-01-28T03:08:52;102963.06;;;2.31;100.00
69306;BME280;56427;51.580;4.656;2023-01-28T03:11:42;102958.84;;;2.25;100.00
69306;BME280;56427;51.580;4.656;2023-01-28T03:14:28;102960.56;;;2.26;100.00
69306;BME280;56427;51.580;4.656;2023-01-28T03:17:22;102962.22;;;2.30;100.00
69306;BME280;56427;51.580;4.656;2023-01-28T03:20:08;102957.28;;;2.16;100.00
69306;BME280;56427;51.580;4.656;2023-01-28T03:22:54;102959.84;;;2.16;100.00
69306;BME280;56427;51.580;4.656;2023-01-28T03:25:42;102960.69;;;2.15;100.00
69306;BME280;56427;51.580;4.656;2023-01-28T03:28:28;102961.34;;;2.31;100.00
69306;BME280;56427;51.580;4.656;2023-01-28T03:31:17;102969.97;;;2.27;100.00
69306;BME280;56427;51.580;4.656;2023-01-28T03:34:03;102967.22;;;2.39;100.00
69306;BME280;56427;51.580;4.656;2023-01-28T03:36:48;102978.38;;;2.35;100.00
69306;BME280;56427;51.580;4.656;2023-01-28T03:39:16;102977.69;;;2.23;100.00
69306;BME280;56427;51.580;4.656;2023-01-28T03:41:54;102974.63;;;1.96;100.00
69306;BME280;56427;51.580;4.656;2023-01-28T03:44:20;102973.59;;;2.11;100.00
69306;BME280;56427;51.580;4.656;2023-01-28T03:47:03;102978.09;;;1.92;100.00
69306;BME280;56427;51.580;4.656;2023-01-28T03:49:31;102979.00;;;1.89;100.00
69306;BME280;56427;51.580;4.656;2023-01-28T03:51:56;102980.25;;;2.23;100.00
69306;BME280;56427;51.580;4.656;2023-01-28T03:54:21;102980.41;;;2.12;100.00
69306;BME280;56427;51.580;4.656;2023-01-28T03:56:47;102987.28;;;2.07;100.00
69306;BME280;56427;51.580;4.656;2023-01-28T03:59:13;102989.00;;;2.08;100.00
69306;BME280;56427;51.580;4.656;2023-01-28T04:01:39;102982.16;;;2.08;100.00
69306;BME280;56427;51.580;4.656;2023-01-28T04:04:04;102985.47;;;2.16;100.00
69306;BME280;56427;51.580;4.656;2023-01-28T04:06:29;102983.75;;;2.17;100.00
69306;BME280;56427;51.580;4.656;2023-01-28T04:08:55;102981.25;;;2.12;100.00
69306;BME280;56427;51.580;4.656;2023-01-28T04:11:24;102996.06;;;1.89;100.00
69306;BME280;56427;51.580;4.656;2023-01-28T04:13:50;102997.81;;;1.83;100.00
69306;BME280;56427;51.580;4.656;2023-01-28T04:16:16;102994.19;;;2.01;100.00
69306;BME280;56427;51.580;4.656;2023-01-28T04:18:43;102995.94;;;1.99;100.00
69306;BME280;56427;51.580;4.656;2023-01-28T04:21:09;102991.50;;;2.12;100.00
69306;BME280;56427;51.580;4.656;2023-01-28T04:23:34;102994.28;;;1.92;100.00
69306;BME280;56427;51.580;4.656;2023-01-28T04:26:00;102985.78;;;1.92;100.00
69306;BME280;56427;51.580;4.656;2023-01-28T04:28:25;102984.06;;;1.91;100.00
69306;BME280;56427;51.580;4.656;2023-01-28T04:30:51;102980.66;;;1.92;100.00
69306;BME280;56427;51.580;4.656;2023-01-28T04:33:16;102975.38;;;2.06;100.00
69306;BME280;56427;51.580;4.656;2023-01-28T04:35:41;102986.19;;;2.26;100.00
69306;BME280;56427;51.580;4.656;2023-01-28T04:38:07;102983.50;;;2.35;100.00
69306;BME280;56427;51.580;4.656;2023-01-28T04:40:32;102994.09;;;2.11;100.00
69306;BME280;56427;51.580;4.656;2023-01-28T04:42:58;102992.28;;;2.19;100.00
69306;BME280;56427;51.580;4.656;2023-01-28T04:45:23;102991.28;;;2.28;100.00
69306;BME280;56427;51.580;4.656;2023-01-28T04:47:49;102991.25;;;2.31;100.00
69306;BME280;56427;51.580;4.656;2023-01-28T04:50:15;102993.13;;;2.19;100.00
69306;BME280;56427;51.580;4.656;2023-01-28T04:52:41;102993.94;;;2.20;100.00
69306;BME280;56427;51.580;4.656;2023-01-28T04:55:07;102997.44;;;2.16;100.00
69306;BME280;56427;51.580;4.656;2023-01-28T04:57:33;103008.44;;;2.23;100.00
69306;BME280;56427;51.580;4.656;2023-01-28T04:59:58;103001.91;;;1.98;100.00
69306;BME280;56427;51.580;4.656;2023-01-28T05:02:24;103006.91;;;2.09;100.00
69306;BME280;56427;51.580;4.656;2023-01-28T05:04:49;102998.47;;;2.02;100.00
69306;BME280;56427;51.580;4.656;2023-01-28T05:07:14;102999.03;;;2.23;100.00
69306;BME280;56427;51.580;4.656;2023-01-28T05:09:40;102995.06;;;1.99;100.00
69306;BME280;56427;51.580;4.656;2023-01-28T05:12:05;102987.50;;;1.90;100.00
69306;BME280;56427;51.580;4.656;2023-01-28T05:14:31;102988.28;;;1.98;100.00
69306;BME280;56427;51.580;4.656;2023-01-28T05:16:57;102993.69;;;1.73;100.00
69306;BME280;56427;51.580;4.656;2023-01-28T05:19:22;102988.47;;;1.81;100.00
69306;BME280;56427;51.580;4.656;2023-01-28T05:21:47;102988.28;;;1.98;100.00
69306;BME280;56427;51.580;4.656;2023-01-28T05:24:13;102989.03;;;2.06;100.00
69306;BME280;56427;51.580;4.656;2023-01-28T05:26:40;102990.78;;;2.02;100.00
69306;BME280;56427;51.580;4.656;2023-01-28T05:29:05;102983.06;;;2.04;100.00
69306;BME280;56427;51.580;4.656;2023-01-28T05:31:31;102982.78;;;2.27;100.00
69306;BME280;56427;51.580;4.656;2023-01-28T05:33:56;102990.63;;;2.13;100.00
69306;BME280;56427;51.580;4.656;2023-01-28T05:36:22;102994.25;;;1.97;100.00
69306;BME280;56427;51.580;4.656;2023-01-28T05:38:47;102993.47;;;1.92;100.00
69306;BME280;56427;51.580;4.656;2023-01-28T05:41:12;102995.94;;;1.98;100.00
69306;BME280;56427;51.580;4.656;2023-01-28T05:43:38;102991.44;;;2.15;100.00
69306;BME280;56427;51.580;4.656;2023-01-28T05:46:03;102997.63;;;1.99;100.00
69306;BME280;56427;51.580;4.656;2023-01-28T05:48:29;103003.69;;;1.92;100.00
69306;BME280;56427;51.580;4.656;2023-01-28T05:50:54;103003.31;;;2.23;100.00
69306;BME280;56427;51.580;4.656;2023-01-28T05:53:20;103000.69;;;2.29;100.00
69306;BME280;56427;51.580;4.656;2023-01-28T05:55:49;103004.34;;;2.11;100.00
69306;BME280;56427;51.580;4.656;2023-01-28T05:58:15;103007.03;;;1.98;100.00
69306;BME280;56427;51.580;4.656;2023-01-28T06:00:40;103000.53;;;2.38;100.00
69306;BME280;56427;51.580;4.656;2023-01-28T06:03:06;102998.00;;;2.36;100.00
69306;BME280;56427;51.580;4.656;2023-01-28T06:05:31;102999.94;;;2.20;100.00
69306;BME280;56427;51.580;4.656;2023-01-28T06:07:56;103004.44;;;2.00;100.00
69306;BME280;56427;51.580;4.656;2023-01-28T06:10:21;102995.91;;;2.02;100.00
69306;BME280;56427;51.580;4.656;2023-01-28T06:12:47;102994.47;;;1.80;100.00
69306;BME280;56427;51.580;4.656;2023-01-28T06:15:12;102988.31;;;1.95;100.00
69306;BME280;56427;51.580;4.656;2023-01-28T06:17:38;102990.22;;;1.76;100.00
69306;BME280;56427;51.580;4.656;2023-01-28T06:20:04;102986.81;;;1.75;100.00
69306;BME280;56427;51.580;4.656;2023-01-28T06:22:29;102992.56;;;1.97;100.00
69306;BME280;56427;51.580;4.656;2023-01-28T06:24:55;102996.47;;;2.23;100.00
69306;BME280;56427;51.580;4.656;2023-01-28T06:27:20;102999.22;;;2.11;100.00
69306;BME280;56427;51.580;4.656;2023-01-28T06:29:46;102997.38;;;2.22;100.00
69306;BME280;56427;51.580;4.656;2023-01-28T06:32:12;103002.41;;;2.27;100.00
69306;BME280;56427;51.580;4.656;2023-01-28T06:34:37;102999.25;;;2.08;100.00
69306;BME280;56427;51.580;4.656;2023-01-28T06:37:03;102997.56;;;2.05;100.00
69306;BME280;56427;51.580;4.656;2023-01-28T06:39:29;102996.81;;;1.95;100.00
69306;BME280;56427;51.580;4.656;2023-01-28T06:41:56;103010.81;;;1.67;100.00
69306;BME280;56427;51.580;4.656;2023-01-28T06:44:24;103006.41;;;1.79;100.00
69306;BME280;56427;51.580;4.656;2023-01-28T06:46:49;103003.47;;;2.09;100.00
69306;BME280;56427;51.580;4.656;2023-01-28T06:49:15;103004.50;;;1.97;100.00
69306;BME280;56427;51.580;4.656;2023-01-28T06:51:40;103008.13;;;1.77;100.00
69306;BME280;56427;51.580;4.656;2023-01-28T06:54:06;103005.56;;;1.77;100.00
69306;BME280;56427;51.580;4.656;2023-01-28T06:56:31;103014.00;;;1.86;100.00
69306;BME280;56427;51.580;4.656;2023-01-28T06:58:57;103009.75;;;1.88;100.00
69306;BME280;56427;51.580;4.656;2023-01-28T07:01:22;103015.13;;;1.64;100.00
69306;BME280;56427;51.580;4.656;2023-01-28T07:03:48;103015.91;;;1.71;100.00
69306;BME280;56427;51.580;4.656;2023-01-28T07:06:13;103026.25;;;1.59;100.00
69306;BME280;56427;51.580;4.656;2023-01-28T07:08:38;103022.13;;;2.20;100.00
69306;BME280;56427;51.580;4.656;2023-01-28T07:11:05;103014.75;;;1.94;100.00
69306;BME280;56427;51.580;4.656;2023-01-28T07:13:30;103026.03;;;1.80;100.00
69306;BME280;56427;51.580;4.656;2023-01-28T07:15:56;103049.25;;;1.62;100.00
69306;BME280;56427;51.580;4.656;2023-01-28T07:18:21;103037.19;;;1.75;100.00
69306;BME280;56427;51.580;4.656;2023-01-28T07:20:47;103036.38;;;1.71;100.00
69306;BME280;56427;51.580;4.656;2023-01-28T07:23:12;103039.63;;;1.86;100.00
69306;BME280;56427;51.580;4.656;2023-01-28T07:25:37;103043.06;;;1.83;100.00
69306;BME280;56427;51.580;4.656;2023-01-28T07:28:03;103044.19;;;1.56;100.00
69306;BME280;56427;51.580;4.656;2023-01-28T07:30:29;103053.66;;;1.46;100.00
69306;BME280;56427;51.580;4.656;2023-01-28T07:32:56;103043.47;;;1.41;100.00
69306;BME280;56427;51.580;4.656;2023-01-28T07:35:22;103046.50;;;1.79;100.00
69306;BME280;56427;51.580;4.656;2023-01-28T07:37:59;103040.44;;;1.89;100.00
69306;BME280;56427;51.580;4.656;2023-01-28T07:40:26;103037.03;;;1.87;100.00
69306;BME280;56427;51.580;4.656;2023-01-28T07:42:51;103031.09;;;1.83;100.00
69306;BME280;56427;51.580;4.656;2023-01-28T07:45:18;103036.91;;;2.01;100.00
69306;BME280;56427;51.580;4.656;2023-01-28T07:47:44;103048.38;;;2.39;100.00
69306;BME280;56427;51.580;4.656;2023-01-28T07:50:10;103043.50;;;2.19;100.00
69306;BME280;56427;51.580;4.656;2023-01-28T07:52:36;103051.19;;;2.20;100.00
69306;BME280;56427;51.580;4.656;2023-01-28T07:55:09;103044.44;;;2.12;100.00
69306;BME280;56427;51.580;4.656;2023-01-28T07:57:35;103034.88;;;2.25;100.00
69306;BME280;56427;51.580;4.656;2023-01-28T08:00:01;103042.75;;;2.11;100.00
69306;BME280;56427;51.580;4.656;2023-01-28T08:02:26;103056.19;;;2.28;100.00
69306;BME280;56427;51.580;4.656;2023-01-28T08:04:53;103058.16;;;2.09;100.00
69306;BME280;56427;51.580;4.656;2023-01-28T08:07:18;103065.19;;;1.90;100.00
69306;BME280;56427;51.580;4.656;2023-01-28T08:09:44;103056.41;;;2.10;100.00
69306;BME280;56427;51.580;4.656;2023-01-28T08:12:09;103064.88;;;2.18;100.00
69306;BME280;56427;51.580;4.656;2023-01-28T08:14:34;103065.09;;;1.98;100.00
69306;BME280;56427;51.580;4.656;2023-01-28T08:17:00;103071.47;;;2.36;100.00
69306;BME280;56427;51.580;4.656;2023-01-28T08:19:25;103070.16;;;2.04;100.00
69306;BME280;56427;51.580;4.656;2023-01-28T08:21:51;103080.41;;;2.02;100.00
69306;BME280;56427;51.580;4.656;2023-01-28T08:24:16;103072.56;;;2.18;100.00
69306;BME280;56427;51.580;4.656;2023-01-28T08:26:42;103079.00;;;1.75;100.00
69306;BME280;56427;51.580;4.656;2023-01-28T08:29:07;103074.66;;;1.82;100.00
69306;BME280;56427;51.580;4.656;2023-01-28T08:31:33;103091.69;;;1.86;100.00
69306;BME280;56427;51.580;4.656;2023-01-28T08:33:58;103089.00;;;1.98;100.00
69306;BME280;56427;51.580;4.656;2023-01-28T08:36:24;103082.13;;;2.02;100.00
69306;BME280;56427;51.580;4.656;2023-01-28T08:38:52;103073.03;;;2.48;100.00
69306;BME280;56427;51.580;4.656;2023-01-28T08:41:21;103076.06;;;2.11;100.00
69306;BME280;56427;51.580;4.656;2023-01-28T08:43:47;103082.75;;;2.21;100.00
69306;BME280;56427;51.580;4.656;2023-01-28T08:46:13;103089.72;;;2.08;100.00
69306;BME280;56427;51.580;4.656;2023-01-28T08:48:38;103099.16;;;2.08;100.00
69306;BME280;56427;51.580;4.656;2023-01-28T08:51:03;103104.31;;;2.01;100.00
69306;BME280;56427;51.580;4.656;2023-01-28T08:53:29;103103.81;;;1.69;100.00
69306;BME280;56427;51.580;4.656;2023-01-28T08:55:54;103095.03;;;1.93;100.00
69306;BME280;56427;51.580;4.656;2023-01-28T08:58:20;103096.09;;;2.48;100.00
69306;BME280;56427;51.580;4.656;2023-01-28T09:00:46;103094.66;;;2.25;100.00
69306;BME280;56427;51.580;4.656;2023-01-28T09:03:12;103102.31;;;2.27;100.00
69306;BME280;56427;51.580;4.656;2023-01-28T09:05:38;103090.47;;;2.19;100.00
69306;BME280;56427;51.580;4.656;2023-01-28T09:08:09;103107.72;;;2.02;100.00
69306;BME280;56427;51.580;4.656;2023-01-28T09:10:36;103114.38;;;2.18;100.00
69306;BME280;56427;51.580;4.656;2023-01-28T09:13:13;103118.06;;;1.96;100.00
69306;BME280;56427;51.580;4.656;2023-01-28T09:15:40;103122.91;;;2.20;100.00
69306;BME280;56427;51.580;4.656;2023-01-28T09:18:06;103129.88;;;2.09;100.00
69306;BME280;56427;51.580;4.656;2023-01-28T09:20:31;103138.13;;;2.34;100.00
69306;BME280;56427;51.580;4.656;2023-01-28T09:22:57;103136.41;;;2.35;100.00
69306;BME280;56427;51.580;4.656;2023-01-28T09:25:23;103127.94;;;2.28;100.00
69306;BME280;56427;51.580;4.656;2023-01-28T09:27:48;103133.88;;;2.32;100.00
69306;BME280;56427;51.580;4.656;2023-01-28T09:30:14;103135.63;;;2.28;100.00
69306;BME280;56427;51.580;4.656;2023-01-28T09:32:40;103138.28;;;2.20;100.00
69306;BME280;56427;51.580;4.656;2023-01-28T09:35:05;103140.78;;;2.24;100.00
69306;BME280;56427;51.580;4.656;2023-01-28T09:37:31;103140.72;;;2.30;100.00
69306;BME280;56427;51.580;4.656;2023-01-28T09:39:56;103144.38;;;2.09;100.00
69306;BME280;56427;51.580;4.656;2023-01-28T09:42:42;103145.25;;;2.06;100.00
69306;BME280;56427;51.580;4.656;2023-01-28T09:48:01;103150.63;;;1.81;100.00
69306;BME280;56427;51.580;4.656;2023-01-28T09:50:43;103147.00;;;2.02;100.00
69306;BME280;56427;51.580;4.656;2023-01-28T09:53:20;103147.84;;;2.05;100.00
69306;BME280;56427;51.580;4.656;2023-01-28T09:55:53;103146.09;;;2.08;100.00
69306;BME280;56427;51.580;4.656;2023-01-28T09:58:19;103144.53;;;1.95;100.00
69306;BME280;56427;51.580;4.656;2023-01-28T10:04:11;103143.34;;;2.95;100.00
69306;BME280;56427;51.580;4.656;2023-01-28T10:09:59;103143.22;;;3.04;100.00
69306;BME280;56427;51.580;4.656;2023-01-28T10:15:15;103136.81;;;2.72;100.00
69306;BME280;56427;51.580;4.656;2023-01-28T10:17:44;103135.44;;;3.07;100.00
69306;BME280;56427;51.580;4.656;2023-01-28T10:22:42;103152.56;;;3.07;100.00
69306;BME280;56427;51.580;4.656;2023-01-28T10:25:22;103146.66;;;3.02;100.00
69306;BME280;56427;51.580;4.656;2023-01-28T10:27:49;103151.94;;;2.91;100.00
69306;BME280;56427;51.580;4.656;2023-01-28T10:30:21;103152.00;;;2.88;100.00
69306;BME280;56427;51.580;4.656;2023-01-28T10:35:55;103156.06;;;3.03;100.00
69306;BME280;56427;51.580;4.656;2023-01-28T10:38:22;103149.53;;;2.80;100.00
69306;BME280;56427;51.580;4.656;2023-01-28T10:40:48;103142.00;;;2.66;100.00
69306;BME280;56427;51.580;4.656;2023-01-28T10:43:17;103133.72;;;2.47;100.00
69306;BME280;56427;51.580;4.656;2023-01-28T10:46:06;103149.00;;;2.55;100.00
69306;BME280;56427;51.580;4.656;2023-01-28T10:48:32;103133.97;;;2.92;100.00
69306;BME280;56427;51.580;4.656;2023-01-28T10:51:00;103131.34;;;2.97;100.00
69306;BME280;56427;51.580;4.656;2023-01-28T10:53:47;103126.22;;;2.95;100.00
69306;BME280;56427;51.580;4.656;2023-01-28T10:56:28;103114.63;;;3.29;100.00
69306;BME280;56427;51.580;4.656;2023-01-28T10:59:02;103120.63;;;3.26;100.00
69306;BME280;56427;51.580;4.656;2023-01-28T11:01:53;103124.72;;;3.38;100.00
69306;BME280;56427;51.580;4.656;2023-01-28T11:04:25;103119.78;;;3.77;100.00
69306;BME280;56427;51.580;4.656;2023-01-28T11:07:03;103113.34;;;3.53;100.00
69306;BME280;56427;51.580;4.656;2023-01-28T11:09:34;103108.38;;;3.94;100.00
69306;BME280;56427;51.580;4.656;2023-01-28T11:12:28;103112.66;;;3.95;100.00
69306;BME280;56427;51.580;4.656;2023-01-28T11:14:59;103109.38;;;4.30;100.00
69306;BME280;56427;51.580;4.656;2023-01-28T11:17:31;103101.06;;;4.59;100.00
69306;BME280;56427;51.580;4.656;2023-01-28T11:20:08;103102.59;;;4.28;100.00
69306;BME280;56427;51.580;4.656;2023-01-28T11:22:41;103107.84;;;4.21;100.00
69306;BME280;56427;51.580;4.656;2023-01-28T11:27:52;103084.50;;;4.31;100.00
69306;BME280;56427;51.580;4.656;2023-01-28T11:30:30;103092.59;;;5.28;100.00
69306;BME280;56427;51.580;4.656;2023-01-28T11:35:28;103064.19;;;4.96;100.00
69306;BME280;56427;51.580;4.656;2023-01-28T11:37:56;103056.97;;;4.75;100.00
69306;BME280;56427;51.580;4.656;2023-01-28T11:40:21;103044.19;;;5.08;100.00
69306;BME280;56427;51.580;4.656;2023-01-28T11:42:48;103051.44;;;4.93;100.00
69306;BME280;56427;51.580;4.656;2023-01-28T11:45:17;103041.50;;;5.47;100.00
69306;BME280;56427;51.580;4.656;2023-01-28T11:48:26;103037.19;;;5.47;100.00
69306;BME280;56427;51.580;4.656;2023-01-28T11:51:01;103021.41;;;5.91;99.22
69306;BME280;56427;51.580;4.656;2023-01-28T11:56:26;103009.31;;;4.96;99.92
69306;BME280;56427;51.580;4.656;2023-01-28T12:05:01;103005.63;;;5.39;98.83
69306;BME280;56427;51.580;4.656;2023-01-28T12:07:53;102998.75;;;5.72;97.31
69306;BME280;56427;51.580;4.656;2023-01-28T12:10:27;103007.47;;;5.67;100.00
69306;BME280;56427;51.580;4.656;2023-01-28T12:16:06;103013.00;;;4.86;100.00
69306;BME280;56427;51.580;4.656;2023-01-28T12:19:00;103021.78;;;4.39;100.00
69306;BME280;56427;51.580;4.656;2023-01-28T12:24:27;103032.38;;;4.63;100.00
69306;BME280;56427;51.580;4.656;2023-01-28T12:32:24;103047.66;;;4.32;100.00
69306;BME280;56427;51.580;4.656;2023-01-28T12:37:58;103046.63;;;5.14;100.00
69306;BME280;56427;51.580;4.656;2023-01-28T12:41:03;103040.78;;;5.07;100.00
69306;BME280;56427;51.580;4.656;2023-01-28T12:43:44;103043.66;;;5.29;99.08
69306;BME280;56427;51.580;4.656;2023-01-28T12:49:16;103050.78;;;4.84;100.00
69306;BME280;56427;51.580;4.656;2023-01-28T12:54:26;103058.69;;;4.76;100.00
69306;BME280;56427;51.580;4.656;2023-01-28T12:56:54;103060.09;;;4.50;100.00
69306;BME280;56427;51.580;4.656;2023-01-28T13:01:54;103069.44;;;4.93;100.00
69306;BME280;56427;51.580;4.656;2023-01-28T13:07:00;103047.97;;;5.29;100.00
69306;BME280;56427;51.580;4.656;2023-01-28T13:09:28;103050.47;;;5.32;100.00
69306;BME280;56427;51.580;4.656;2023-01-28T13:11:56;103038.72;;;4.86;100.00
69306;BME280;56427;51.580;4.656;2023-01-28T13:14:32;103027.25;;;4.22;100.00
69306;BME280;56427;51.580;4.656;2023-01-28T13:17:11;103025.28;;;4.35;100.00
69306;BME280;56427;51.580;4.656;2023-01-28T13:19:41;103020.91;;;4.78;100.00
69306;BME280;56427;51.580;4.656;2023-01-28T13:22:32;103010.59;;;4.78;100.00
69306;BME280;56427;51.580;4.656;2023-01-28T13:27:38;103001.78;;;5.23;100.00
69306;BME280;56427;51.580;4.656;2023-01-28T13:30:22;102994.69;;;5.31;100.00
69306;BME280;56427;51.580;4.656;2023-01-28T13:32:55;102993.41;;;5.47;100.00
69306;BME280;56427;51.580;4.656;2023-01-28T13:35:51;102988.53;;;5.04;100.00
69306;BME280;56427;51.580;4.656;2023-01-28T13:38:18;102980.03;;;5.02;100.00
69306;BME280;56427;51.580;4.656;2023-01-28T13:40:56;102963.59;;;5.06;100.00
69306;BME280;56427;51.580;4.656;2023-01-28T13:43:27;102968.97;;;5.29;100.00
69306;BME280;56427;51.580;4.656;2023-01-28T13:46:25;102970.88;;;5.23;100.00
69306;BME280;56427;51.580;4.656;2023-01-28T13:48:54;102965.47;;;5.01;100.00
69306;BME280;56427;51.580;4.656;2023-01-28T13:51:27;102968.06;;;4.99;100.00
69306;BME280;56427;51.580;4.656;2023-01-28T13:53:59;102965.34;;;4.71;100.00
69306;BME280;56427;51.580;4.656;2023-01-28T13:56:38;102971.25;;;4.74;100.00
69306;BME280;56427;51.580;4.656;2023-01-28T14:02:01;102970.63;;;4.65;100.00
69306;BME280;56427;51.580;4.656;2023-01-28T14:05:14;102989.50;;;5.32;100.00
69306;BME280;56427;51.580;4.656;2023-01-28T14:18:20;103003.06;;;4.33;100.00
69306;BME280;56427;51.580;4.656;2023-01-28T14:20:48;103001.97;;;4.43;100.00
69306;BME280;56427;51.580;4.656;2023-01-28T14:23:16;103005.16;;;4.15;100.00
69306;BME280;56427;51.580;4.656;2023-01-28T14:31:26;102991.47;;;3.73;100.00
69306;BME280;56427;51.580;4.656;2023-01-28T14:33:52;102998.31;;;3.74;100.00
69306;BME280;56427;51.580;4.656;2023-01-28T14:36:18;102997.06;;;3.93;100.00